Time;durP1;ratioP1;P1;durP2;ratioP2;P2;SDS_P1;SDS_P2;PMS_P1;PMS_P2;Temp;Humidity;BMP_temperature;BMP_pressure;BME280_temperature;BME280_humidity;BME280_pressure;Samples;Min_cycle;Max_cycle;Signal;HPM_P1;HPM_P2
2021/11/02 00:01:03;;;;;;;23.08;10.60;;;;;;;;;;5031587;28;20061;-70
2021/11/02 00:03:31;;;;;;;6.47;3.92;;;;;;;;;;5031295;28;20136;-70
2021/11/02 00:05:58;;;;;;;6.57;2.90;;;;;;;;;;5031402;28;20057;-70
2021/11/02 00:08:24;;;;;;;3.97;2.70;;;;;;;;;;5031654;28;20042;-69
2021/11/02 00:10:51;;;;;;;3.03;2.53;;;;;;;;;;5031442;28;20563;-69
2021/11/02 00:13:20;;;;;;;4.47;2.33;;;;;;;;;;5031275;28;20045;-70
2021/11/02 00:15:53;;;;;;;5.22;2.53;;;;;;;;;;5030056;28;20053;-70
2021/11/02 00:18:22;;;;;;;3.35;2.42;;;;;;;;;;5030025;28;20095;-70
2021/11/02 00:20:58;;;;;;;3.60;2.50;;;;;;;;;;5030928;28;20500;-70
2021/11/02 00:23:25;;;;;;;2.30;1.60;;;;;;;;;;5031245;28;20053;-70
2021/11/02 00:25:51;;;;;;;4.97;1.88;;;;;;;;;;5031338;28;20471;-70
2021/11/02 00:28:18;;;;;;;2.30;1.70;;;;;;;;;;5031109;28;20111;-70
2021/11/02 00:30:45;;;;;;;3.80;1.88;;;;;;;;;;5031217;28;20053;-70
2021/11/02 00:33:11;;;;;;;2.85;1.73;;;;;;;;;;5031168;28;20057;-70
2021/11/02 00:35:38;;;;;;;4.78;1.70;;;;;;;;;;5034299;28;20045;-70
2021/11/02 00:38:05;;;;;;;6.05;2.10;;;;;;;;;;5034808;28;20084;-70
2021/11/02 00:40:31;;;;;;;5.28;2.00;;;;;;;;;;5034698;28;20566;-70
2021/11/02 00:43:00;;;;;;;4.65;2.03;;;;;;;;;;5034472;28;20103;-70
2021/11/02 00:45:31;;;;;;;2.92;1.77;;;;;;;;;;5034793;28;20103;-69
2021/11/02 00:47:59;;;;;;;3.17;1.77;;;;;;;;;;5034641;28;20701;-70
2021/11/02 00:50:26;;;;;;;2.80;1.95;;;;;;;;;;5034666;28;20049;-69
2021/11/02 00:52:53;;;;;;;3.13;1.58;;;;;;;;;;5034338;28;20057;-68
2021/11/02 00:55:20;;;;;;;2.95;1.58;;;;;;;;;;5033598;28;20057;-69
2021/11/02 00:57:47;;;;;;;3.63;1.80;;;;;;;;;;5034554;28;20061;-69
2021/11/02 01:00:14;;;;;;;3.83;1.70;;;;;;;;;;5034505;28;20049;-68
2021/11/02 01:02:41;;;;;;;2.35;1.95;;;;;;;;;;5016665;28;20046;-68
2021/11/02 01:05:09;;;;;;;5.32;1.70;;;;;;;;;;5034569;28;20107;-68
2021/11/02 01:07:36;;;;;;;3.53;1.85;;;;;;;;;;5034417;28;20100;-68
2021/11/02 01:10:05;;;;;;;5.00;1.85;;;;;;;;;;5034172;28;20544;-69
2021/11/02 01:12:31;;;;;;;2.05;1.70;;;;;;;;;;5032841;28;20053;-68
2021/11/02 01:14:58;;;;;;;4.03;1.90;;;;;;;;;;5034277;28;20053;-68
2021/11/02 01:17:25;;;;;;;4.63;1.98;;;;;;;;;;5034161;28;20053;-68
2021/11/02 01:19:51;;;;;;;3.65;1.80;;;;;;;;;;5034008;28;20440;-68
2021/11/02 01:22:18;;;;;;;3.10;1.83;;;;;;;;;;5034465;28;20057;-68
2021/11/02 01:24:44;;;;;;;3.95;1.65;;;;;;;;;;5034192;28;20456;-68
2021/11/02 01:27:11;;;;;;;5.00;1.88;;;;;;;;;;5034062;28;20471;-68
2021/11/02 01:29:38;;;;;;;4.55;2.00;;;;;;;;;;5033797;28;20103;-68
2021/11/02 01:32:04;;;;;;;4.00;1.52;;;;;;;;;;5033664;28;20049;-68
2021/11/02 01:34:31;;;;;;;3.75;1.75;;;;;;;;;;5032465;28;20092;-68
2021/11/02 01:36:58;;;;;;;2.90;1.48;;;;;;;;;;5014037;28;20127;-69
2021/11/02 01:39:27;;;;;;;4.03;1.77;;;;;;;;;;5014144;28;20049;-69
2021/11/02 01:41:53;;;;;;;2.42;1.45;;;;;;;;;;5013968;28;20073;-68
2021/11/02 01:44:20;;;;;;;5.28;2.40;;;;;;;;;;5014171;28;20563;-68
2021/11/02 01:46:47;;;;;;;6.75;1.92;;;;;;;;;;5013044;28;20108;-68
2021/11/02 01:49:18;;;;;;;3.15;1.92;;;;;;;;;;5012615;28;20045;-68
2021/11/02 01:51:44;;;;;;;3.35;1.40;;;;;;;;;;5013549;28;20096;-68
2021/11/02 01:54:12;;;;;;;2.65;1.70;;;;;;;;;;5013896;28;20053;-68
2021/11/02 01:56:39;;;;;;;3.53;1.70;;;;;;;;;;5013604;28;20100;-68
2021/11/02 01:59:06;;;;;;;4.32;1.80;;;;;;;;;;5013682;28;20046;-68
2021/11/02 02:01:36;;;;;;;6.50;3.63;;;;;;;;;;5013406;28;20476;-68
2021/11/02 02:04:15;;;;;;;3.88;1.80;;;;;;;;;;5012308;28;20053;-68
2021/11/02 02:07:02;;;;;;;4.53;1.67;;;;;;;;;;5012285;28;20406;-68
2021/11/02 02:09:39;;;;;;;7.03;1.60;;;;;;;;;;5012407;28;20046;-68
2021/11/02 02:12:12;;;;;;;4.13;1.80;;;;;;;;;;4996238;28;20054;-68
2021/11/02 02:14:50;;;;;;;2.92;1.60;;;;;;;;;;4996274;28;20045;-69
2021/11/02 02:17:19;;;;;;;3.50;1.63;;;;;;;;;;4996728;28;20497;-68
2021/11/02 02:19:58;;;;;;;3.55;1.60;;;;;;;;;;4996182;28;20050;-68
2021/11/02 02:22:54;;;;;;;3.28;1.70;;;;;;;;;;4995903;28;20124;-68
2021/11/02 02:25:33;;;;;;;3.17;2.10;;;;;;;;;;5012125;28;20108;-69
2021/11/02 02:28:25;;;;;;;3.45;1.75;;;;;;;;;;5013052;28;20054;-69
2021/11/02 02:31:06;;;;;;;1.95;1.33;;;;;;;;;;4996589;28;20464;-68
2021/11/02 02:33:42;;;;;;;3.35;1.90;;;;;;;;;;5011675;28;20061;-68
2021/11/02 02:36:08;;;;;;;1.92;1.55;;;;;;;;;;5012045;28;20456;-68
2021/11/02 02:38:38;;;;;;;4.13;1.75;;;;;;;;;;5011697;28;20084;-68
2021/11/02 02:41:04;;;;;;;5.03;1.60;;;;;;;;;;5013014;28;20464;-68
2021/11/02 02:43:37;;;;;;;2.53;1.52;;;;;;;;;;4995435;28;20081;-69
2021/11/02 02:46:03;;;;;;;2.70;1.70;;;;;;;;;;4995645;28;20054;-69
2021/11/02 02:48:30;;;;;;;3.50;1.73;;;;;;;;;;4995333;28;20103;-69
2021/11/02 02:50:57;;;;;;;2.92;1.55;;;;;;;;;;5012706;28;20053;-69
2021/11/02 02:53:24;;;;;;;5.95;1.70;;;;;;;;;;4995203;28;20116;-69
2021/11/02 02:55:53;;;;;;;2.85;1.27;;;;;;;;;;5021661;28;20118;-68
2021/11/02 02:58:23;;;;;;;3.88;1.67;;;;;;;;;;5032204;28;20049;-68
2021/11/02 03:00:50;;;;;;;3.25;1.50;;;;;;;;;;5014913;28;20083;-68
2021/11/02 03:03:17;;;;;;;2.40;1.25;;;;;;;;;;5031989;28;20080;-68
2021/11/02 03:05:44;;;;;;;2.70;1.40;;;;;;;;;;5020261;28;20087;-68
2021/11/02 03:08:11;;;;;;;2.65;1.38;;;;;;;;;;5050730;28;20056;-68
2021/11/02 03:10:38;;;;;;;4.10;1.55;;;;;;;;;;5051998;28;20451;-68
2021/11/02 03:13:08;;;;;;;4.25;1.58;;;;;;;;;;5050622;28;20566;-68
2021/11/02 04:29:00;;;;;;;2.25;1.17;;;;;;;;;;5015313;28;20081;-69
2021/11/02 04:31:56;;;;;;;3.05;1.63;;;;;;;;;;5034077;28;20112;-69
2021/11/02 05:07:29;;;;;;;4.20;1.85;;;;;;;;;;5021861;28;20103;-69
2021/11/02 05:46:43;;;;;;;5.13;3.03;;;;;;;;;;5000655;28;20444;-69
2021/11/02 05:57:00;;;;;;;3.85;2.20;;;;;;;;;;5033582;28;20103;-70
2021/11/02 06:02:48;;;;;;;8.18;2.50;;;;;;;;;;5033990;28;20049;-68
2021/11/02 06:30:03;;;;;;;8.95;2.60;;;;;;;;;;5032914;28;20091;-69
2021/11/02 06:32:35;;;;;;;3.90;3.13;;;;;;;;;;5017504;28;20050;-70
2021/11/02 06:35:25;;;;;;;7.13;3.38;;;;;;;;;;5013141;28;20107;-69
2021/11/02 06:57:01;;;;;;;5.90;3.33;;;;;;;;;;5030567;28;20050;-69
2021/11/02 07:19:04;;;;;;;4.53;2.08;;;;;;;;;;5038114;28;20064;-67
2021/11/02 07:21:47;;;;;;;;;;;;;;;;;;5058637;28;20101;-67
2021/11/02 08:46:06;;;;;;;2.38;1.27;;;;;;;;;;5046680;28;20030;-69
2021/11/02 08:48:17;;;;;;;5.13;1.38;;;;;;;;;;5042988;28;20057;-68
2021/11/02 08:50:53;;;;;;;2.85;1.40;;;;;;;;;;5040866;28;20050;-70
2021/11/02 08:53:20;;;;;;;2.55;1.65;;;;;;;;;;5046194;28;20044;-70
2021/11/02 08:56:05;;;;;;;5.05;2.50;;;;;;;;;;5042418;28;20030;-72
2021/11/02 08:58:36;;;;;;;4.85;1.60;;;;;;;;;;5040517;28;20057;-69
2021/11/02 09:01:03;;;;;;;1.70;1.38;;;;;;;;;;5044493;28;20149;-71
2021/11/02 09:03:37;;;;;;;4.85;1.70;;;;;;;;;;5044578;28;20037;-71
2021/11/02 09:06:07;;;;;;;4.78;1.80;;;;;;;;;;5022293;28;20076;-73
2021/11/02 09:08:46;;;;;;;4.43;2.00;;;;;;;;;;5017710;28;20073;-73
2021/11/02 09:11:15;;;;;;;1.73;1.50;;;;;;;;;;5004408;28;20050;-70
2021/11/02 09:13:44;;;;;;;3.25;1.75;;;;;;;;;;5001275;28;20524;-72
2021/11/02 09:16:11;;;;;;;2.58;1.67;;;;;;;;;;5001583;28;20057;-71
2021/11/02 09:18:38;;;;;;;4.90;1.80;;;;;;;;;;4985503;28;20096;-71
2021/11/02 09:21:10;;;;;;;1.98;1.70;;;;;;;;;;5010839;28;20034;-71
2021/11/02 09:23:45;;;;;;;2.90;1.52;;;;;;;;;;5024190;28;20056;-70
2021/11/02 09:26:19;;;;;;;4.05;1.98;;;;;;;;;;5030959;28;20060;-70
2021/11/02 09:28:49;;;;;;;5.97;1.92;;;;;;;;;;5023215;28;20045;-69
2021/11/02 09:31:21;;;;;;;3.08;2.20;;;;;;;;;;5045562;23;20073;-71
2021/11/02 09:33:48;;;;;;;2.08;1.52;;;;;;;;;;4942922;28;20110;-67
2021/11/02 09:36:19;;;;;;;5.68;2.03;;;;;;;;;;4973071;28;20046;-68
2021/11/02 09:39:03;;;;;;;2.97;1.98;;;;;;;;;;4931280;28;20051;-68
2021/11/02 09:41:48;;;;;;;2.85;1.90;;;;;;;;;;4974999;28;20063;-68
2021/11/02 09:44:34;;;;;;;7.38;2.40;;;;;;;;;;4973643;28;20113;-67
2021/11/02 09:47:13;;;;;;;3.70;2.00;;;;;;;;;;4972531;28;20050;-74
2021/11/02 09:50:07;;;;;;;3.28;2.08;;;;;;;;;;4973425;28;20070;-70
2021/11/02 09:52:36;;;;;;;3.95;1.80;;;;;;;;;;4972764;28;20480;-71
2021/11/02 09:55:22;;;;;;;3.33;1.85;;;;;;;;;;4961111;28;20078;-72
2021/11/02 09:58:14;;;;;;;5.47;2.20;;;;;;;;;;4974319;28;20055;-69
2021/11/02 10:00:49;;;;;;;3.63;1.70;;;;;;;;;;4971646;28;20506;-70
2021/11/02 10:03:30;;;;;;;5.93;1.60;;;;;;;;;;4972714;28;20129;-71
2021/11/02 10:06:37;;;;;;;5.28;1.90;;;;;;;;;;4972620;28;20078;-72
2021/11/02 10:09:18;;;;;;;5.40;1.60;;;;;;;;;;4971683;28;20155;-70
2021/11/02 10:12:08;;;;;;;5.60;2.00;;;;;;;;;;4946306;28;20055;-69
2021/11/02 10:15:02;;;;;;;5.28;2.05;;;;;;;;;;4972478;28;20051;-68
2021/11/02 10:17:31;;;;;;;8.27;2.40;;;;;;;;;;4971247;28;20469;-71
2021/11/02 10:20:32;;;;;;;3.70;1.88;;;;;;;;;;4973436;28;20606;-70
2021/11/02 10:23:35;;;;;;;5.28;1.98;;;;;;;;;;4967976;28;20070;-68
2021/11/02 10:26:17;;;;;;;5.15;1.65;;;;;;;;;;4969412;28;20457;-71
2021/11/02 10:28:49;;;;;;;6.22;2.08;;;;;;;;;;4972792;28;20513;-70
2021/11/02 10:31:50;;;;;;;4.28;1.58;;;;;;;;;;4972244;28;20490;-72
2021/11/02 10:34:41;;;;;;;1.77;1.40;;;;;;;;;;4971392;28;20497;-73
2021/11/02 10:37:26;;;;;;;3.15;1.48;;;;;;;;;;4972572;28;20051;-66
2021/11/02 10:40:03;;;;;;;3.10;1.83;;;;;;;;;;4972730;28;20615;-68
2021/11/02 10:42:53;;;;;;;2.50;1.35;;;;;;;;;;4969531;28;20417;-71
2021/11/02 10:45:20;;;;;;;3.25;1.60;;;;;;;;;;4969351;28;20077;-72
2021/11/02 10:48:09;;;;;;;4.38;2.10;;;;;;;;;;4943660;28;20043;-70
2021/11/02 10:50:39;;;;;;;7.50;2.03;;;;;;;;;;4970989;28;20047;-72
2021/11/02 10:53:08;;;;;;;4.47;2.40;;;;;;;;;;4969708;28;20514;-67
2021/11/02 10:56:11;;;;;;;3.90;2.40;;;;;;;;;;4957713;28;20105;-66
2021/11/02 10:58:51;;;;;;;3.75;2.08;;;;;;;;;;4969390;28;20046;-68
2021/11/02 11:01:18;;;;;;;3.67;1.70;;;;;;;;;;4970948;28;20446;-68
2021/11/02 11:03:45;;;;;;;4.85;1.70;;;;;;;;;;4970279;28;20461;-68
2021/11/02 11:06:13;;;;;;;4.95;1.60;;;;;;;;;;4945920;28;20054;-67
2021/11/02 11:08:42;;;;;;;4.63;1.45;;;;;;;;;;4954413;28;20046;-66
2021/11/02 11:11:17;;;;;;;4.32;1.33;;;;;;;;;;4970309;28;20086;-68
2021/11/02 11:13:46;;;;;;;4.30;1.70;;;;;;;;;;4975651;28;20050;-66
2021/11/02 11:16:17;;;;;;;2.38;1.33;;;;;;;;;;4971148;28;20054;-69
2021/11/02 11:18:53;;;;;;;4.50;2.15;;;;;;;;;;4971068;28;20059;-68
2021/11/02 11:21:21;;;;;;;4.55;1.83;;;;;;;;;;4946801;28;20050;-70
2021/11/02 11:23:56;;;;;;;3.42;1.45;;;;;;;;;;4954461;28;20057;-69
2021/11/02 11:26:24;;;;;;;1.65;1.40;;;;;;;;;;4939097;28;20133;-71
2021/11/02 11:28:53;;;;;;;1.73;1.48;;;;;;;;;;4957195;28;20130;-69
2021/11/02 11:31:21;;;;;;;1.92;1.30;;;;;;;;;;4970765;28;20516;-70
2021/11/02 11:33:49;;;;;;;3.15;1.33;;;;;;;;;;4944513;28;20043;-69
2021/11/02 11:36:16;;;;;;;3.72;1.80;;;;;;;;;;4946514;28;20055;-68
2021/11/02 11:38:44;;;;;;;3.83;1.58;;;;;;;;;;4971266;28;20062;-65
2021/11/02 11:41:12;;;;;;;3.25;1.85;;;;;;;;;;4971628;28;20050;-65
2021/11/02 11:43:40;;;;;;;2.70;1.80;;;;;;;;;;4971009;28;20050;-69
2021/11/02 11:46:07;;;;;;;5.93;2.65;;;;;;;;;;4939008;28;20494;-72
2021/11/02 11:48:40;;;;;;;2.72;1.52;;;;;;;;;;4955095;28;20461;-73
2021/11/02 11:51:08;;;;;;;2.78;1.27;;;;;;;;;;4978493;28;20470;-73
2021/11/02 11:53:36;;;;;;;4.45;1.60;;;;;;;;;;4969159;28;20090;-72
2021/11/02 11:56:10;;;;;;;2.85;1.38;;;;;;;;;;4976354;28;20055;-72
2021/11/02 11:58:51;;;;;;;6.47;1.70;;;;;;;;;;4947588;28;20046;-71
2021/11/02 12:01:51;;;;;;;5.82;1.58;;;;;;;;;;4970282;28;20101;-68
2021/11/02 12:04:30;;;;;;;2.03;1.30;;;;;;;;;;4963398;28;20138;-68
2021/11/02 12:07:10;;;;;;;1.95;1.35;;;;;;;;;;4970895;28;20438;-68
2021/11/02 12:09:42;;;;;;;5.88;1.42;;;;;;;;;;4959066;28;20106;-68
2021/11/02 12:12:09;;;;;;;2.40;1.37;;;;;;;;;;4969897;28;20043;-68
2021/11/02 12:14:55;;;;;;;3.33;1.50;;;;;;;;;;4960006;28;20082;-68
2021/11/02 12:17:24;;;;;;;3.40;1.17;;;;;;;;;;4958254;28;20102;-70
2021/11/02 12:19:58;;;;;;;2.33;1.23;;;;;;;;;;4962603;28;20110;-71
2021/11/02 12:22:32;;;;;;;3.45;1.38;;;;;;;;;;4970364;28;20097;-68
2021/11/02 12:25:06;;;;;;;2.47;1.13;;;;;;;;;;4966190;28;20097;-68
2021/11/02 12:27:43;;;;;;;3.55;1.00;;;;;;;;;;4968312;28;20134;-71
2021/11/02 12:30:13;;;;;;;2.78;1.20;;;;;;;;;;4960852;28;20089;-71
2021/11/02 12:32:50;;;;;;;5.45;1.10;;;;;;;;;;4971295;28;20054;-72
2021/11/02 12:35:35;;;;;;;2.33;1.67;;;;;;;;;;4971571;28;20105;-70
2021/11/02 12:38:03;;;;;;;6.35;2.58;;;;;;;;;;4968964;28;20082;-73
2021/11/02 12:40:39;;;;;;;7.03;3.33;;;;;;;;;;4957071;28;20525;-73
2021/11/02 12:43:26;;;;;;;2.67;1.23;;;;;;;;;;4978211;28;20046;-69
2021/11/02 12:45:55;;;;;;;5.10;1.90;;;;;;;;;;4979197;28;20046;-74
2021/11/02 12:48:26;;;;;;;2.80;1.77;;;;;;;;;;4959043;28;20468;-71
2021/11/02 12:51:17;;;;;;;5.10;2.00;;;;;;;;;;4957952;28;20106;-69
2021/11/02 12:53:47;;;;;;;3.17;2.20;;;;;;;;;;4948718;28;20054;-69
2021/11/02 12:56:19;;;;;;;3.83;1.90;;;;;;;;;;4957790;28;20312;-69
2021/11/02 12:58:49;;;;;;;3.53;1.70;;;;;;;;;;4954010;28;20449;-69
2021/11/02 13:01:36;;;;;;;2.13;1.13;;;;;;;;;;4972817;28;20054;-69
2021/11/02 13:04:07;;;;;;;3.45;1.70;;;;;;;;;;4949200;28;20062;-68
2021/11/02 13:06:44;;;;;;;2.60;1.58;;;;;;;;;;4976180;28;20059;-70
2021/11/02 13:09:15;;;;;;;2.90;1.90;;;;;;;;;;4965202;28;20051;-67
2021/11/02 13:11:43;;;;;;;2.42;1.80;;;;;;;;;;4971916;28;20101;-66
2021/11/02 13:14:12;;;;;;;3.85;1.88;;;;;;;;;;4972941;28;20113;-68
2021/11/02 13:16:57;;;;;;;1.75;0.80;;;;;;;;;;4972487;28;20046;-68
2021/11/02 13:19:34;;;;;;;1.30;0.70;;;;;;;;;;4956097;28;20493;-67
2021/11/02 13:22:14;;;;;;;0.55;0.50;;;;;;;;;;4969009;28;20488;-64
2021/11/02 13:25:10;;;;;;;2.60;0.63;;;;;;;;;;4972451;28;20053;-64
2021/11/02 13:27:37;;;;;;;1.30;0.70;;;;;;;;;;4972890;28;20054;-64
2021/11/02 13:30:33;;;;;;;0.95;0.82;;;;;;;;;;4973540;28;20477;-64
2021/11/02 13:33:03;;;;;;;1.23;0.68;;;;;;;;;;4971392;28;20047;-64
2021/11/02 13:35:59;;;;;;;0.95;0.57;;;;;;;;;;4972245;28;20058;-64
2021/11/02 13:38:26;;;;;;;6.30;3.00;;;;;;;;;;4970132;28;20106;-65
2021/11/02 13:40:54;;;;;;;6.72;4.28;;;;;;;;;;4973900;28;20129;-65
2021/11/02 13:43:29;;;;;;;4.88;2.47;;;;;;;;;;4972146;28;20046;-64
2021/11/02 13:45:56;;;;;;;4.75;2.70;;;;;;;;;;4964258;28;20069;-63
2021/11/02 13:48:23;;;;;;;4.07;1.35;;;;;;;;;;4972109;28;20058;-63
2021/11/02 13:50:50;;;;;;;1.58;0.90;;;;;;;;;;4972186;28;20476;-63
2021/11/02 13:53:16;;;;;;;1.63;0.68;;;;;;;;;;4972582;28;20038;-65
2021/11/02 13:55:43;;;;;;;2.10;0.77;;;;;;;;;;4972912;28;20046;-63
2021/11/02 13:58:10;;;;;;;0.68;0.50;;;;;;;;;;4973281;28;20513;-63
2021/11/02 14:00:36;;;;;;;1.42;0.50;;;;;;;;;;4973058;28;20042;-64
2021/11/02 14:03:08;;;;;;;0.30;0.30;;;;;;;;;;4955557;28;20089;-64
2021/11/02 14:05:34;;;;;;;0.70;0.50;;;;;;;;;;4975584;28;20055;-66
2021/11/02 14:08:01;;;;;;;1.50;0.80;;;;;;;;;;4971606;28;20433;-68
2021/11/02 14:10:38;;;;;;;0.63;0.47;;;;;;;;;;4972746;28;20064;-68
2021/11/02 14:13:04;;;;;;;0.85;0.47;;;;;;;;;;4970172;28;20747;-71
2021/11/02 14:15:32;;;;;;;1.27;1.00;;;;;;;;;;4965191;28;20494;-72
2021/11/02 14:18:08;;;;;;;0.90;0.50;;;;;;;;;;4971657;28;20129;-65
2021/11/02 14:20:49;;;;;;;0.50;0.50;;;;;;;;;;4972065;28;20073;-69
2021/11/02 14:23:31;;;;;;;0.70;0.47;;;;;;;;;;4946765;28;20125;-68
2021/11/02 14:26:26;;;;;;;0.60;0.60;;;;;;;;;;4960044;28;20510;-68
2021/11/02 14:28:56;;;;;;;0.65;0.35;;;;;;;;;;4973558;28;20043;-67
2021/11/02 14:31:40;;;;;;;0.80;0.60;;;;;;;;;;4962352;28;20138;-68
2021/11/02 14:34:28;;;;;;;0.55;0.38;;;;;;;;;;4971592;28;20142;-69
2021/11/02 14:37:21;;;;;;;0.52;0.50;;;;;;;;;;4972067;28;20054;-69
2021/11/02 14:40:05;;;;;;;0.40;0.30;;;;;;;;;;4972154;28;20047;-66
2021/11/02 14:42:48;;;;;;;;;;;;;;;;;;4966945;28;20055;-68
2021/11/02 14:45:19;;;;;;;0.40;0.40;;;;;;;;;;4969519;28;19933;-73
2021/11/02 14:47:47;;;;;;;1.65;0.30;;;;;;;;;;4981187;28;20047;-70
2021/11/02 14:50:38;;;;;;;1.55;0.47;;;;;;;;;;4954870;28;20054;-71
2021/11/02 14:53:13;;;;;;;5.72;3.72;;;;;;;;;;4959924;28;20047;-72
2021/11/02 14:55:55;;;;;;;2.45;1.75;;;;;;;;;;4971734;28;20051;-75
2021/11/02 14:58:40;;;;;;;1.25;0.80;;;;;;;;;;4956228;28;20061;-69
2021/11/02 15:01:12;;;;;;;2.70;2.20;;;;;;;;;;4972823;28;20055;-70
2021/11/02 15:03:49;;;;;;;0.57;0.57;;;;;;;;;;4971718;28;20042;-71
2021/11/02 15:06:17;;;;;;;0.43;0.25;;;;;;;;;;4963721;28;20063;-69
2021/11/02 15:08:44;;;;;;;0.93;0.55;;;;;;;;;;4938790;28;20074;-74
2021/11/02 15:11:17;;;;;;;0.85;0.45;;;;;;;;;;4972113;28;20166;-73
2021/11/02 15:13:53;;;;;;;0.40;0.20;;;;;;;;;;4945138;28;20047;-70
2021/11/02 15:16:21;;;;;;;1.23;0.35;;;;;;;;;;4970424;28;20081;-69
2021/11/02 15:18:50;;;;;;;1.23;0.50;;;;;;;;;;4970501;28;20050;-69
2021/11/02 15:21:24;;;;;;;1.95;0.73;;;;;;;;;;4970018;28;20110;-69
2021/11/02 15:23:51;;;;;;;3.05;0.70;;;;;;;;;;4966791;28;20042;-70
2021/11/02 15:27:21;;;;;;;0.50;0.50;;;;;;;;;;4957097;28;20050;-69
2021/11/02 15:29:52;;;;;;;0.90;0.35;;;;;;;;;;4968071;28;20465;-68
2021/11/02 15:32:21;;;;;;;1.35;0.90;;;;;;;;;;4994587;23;20058;-70
2021/11/02 15:34:52;;;;;;;2.08;1.00;;;;;;;;;;4990589;28;20050;-70
2021/11/02 15:37:26;;;;;;;1.88;1.38;;;;;;;;;;4990944;28;20050;-71
2021/11/02 15:40:03;;;;;;;0.60;0.50;;;;;;;;;;5004394;28;20505;-72
2021/11/02 15:42:38;;;;;;;0.63;0.30;;;;;;;;;;4990718;28;20567;-68
2021/11/02 15:45:38;;;;;;;0.20;0.20;;;;;;;;;;4989632;28;20046;-68
2021/11/02 15:48:14;;;;;;;1.10;0.30;;;;;;;;;;4988061;28;20517;-67
2021/11/02 15:50:47;;;;;;;0.80;0.40;;;;;;;;;;4986127;28;20053;-68
2021/11/02 15:53:20;;;;;;;0.95;0.40;;;;;;;;;;4988303;28;20332;-68
2021/11/02 15:55:57;;;;;;;0.43;0.40;;;;;;;;;;4971551;28;20046;-66
2021/11/02 15:58:33;;;;;;;0.95;0.60;;;;;;;;;;4978961;28;20078;-65
2021/11/02 16:01:05;;;;;;;3.20;0.70;;;;;;;;;;4987050;28;20054;-68
2021/11/02 16:03:39;;;;;;;;;;;;;;;;;;4960364;28;20072;-67
2021/11/02 16:06:17;;;;;;;2.95;0.50;;;;;;;;;;4980414;28;20340;-67
2021/11/02 16:08:44;;;;;;;0.28;0.28;;;;;;;;;;4976064;28;20081;-67
2021/11/02 16:11:14;;;;;;;1.17;0.60;;;;;;;;;;4975405;28;20534;-68
2021/11/02 16:13:45;;;;;;;1.00;0.50;;;;;;;;;;4991454;28;20054;-68
2021/11/02 16:16:49;;;;;;;0.60;0.50;;;;;;;;;;4990193;28;20069;-68
2021/11/02 16:19:20;;;;;;;;;;;;;;;;;;4985242;28;20066;-68
2021/11/02 16:21:57;;;;;;;1.83;0.77;;;;;;;;;;4988635;28;19928;-68
2021/11/02 16:24:26;;;;;;;0.90;0.47;;;;;;;;;;4999177;28;20081;-68
2021/11/02 16:26:55;;;;;;;0.52;0.40;;;;;;;;;;4992462;28;20046;-68
2021/11/02 16:29:29;;;;;;;0.55;0.38;;;;;;;;;;4991873;28;20509;-68
2021/11/02 16:32:16;;;;;;;0.90;0.82;;;;;;;;;;4982049;28;20042;-68
2021/11/02 16:34:45;;;;;;;2.03;0.68;;;;;;;;;;4991059;28;20634;-68
2021/11/02 16:37:47;;;;;;;0.50;0.40;;;;;;;;;;4992378;28;20061;-68
2021/11/02 16:40:23;;;;;;;3.25;1.65;;;;;;;;;;4986140;28;20058;-68
2021/11/02 16:42:59;;;;;;;4.53;2.28;;;;;;;;;;4989553;28;20070;-68
2021/11/02 16:45:33;;;;;;;3.55;2.03;;;;;;;;;;4991603;28;20047;-68
2021/11/02 16:48:08;;;;;;;8.02;3.80;;;;;;;;;;4988976;28;20090;-68
2021/11/02 16:50:37;;;;;;;10.10;5.03;;;;;;;;;;4991799;28;20561;-68
2021/11/02 16:53:17;;;;;;;8.10;3.35;;;;;;;;;;4991305;28;20316;-68
2021/11/02 16:55:46;;;;;;;18.35;8.82;;;;;;;;;;4988257;28;20046;-72
2021/11/02 16:58:28;;;;;;;16.75;8.40;;;;;;;;;;4992460;28;20120;-70
2021/11/02 17:01:18;;;;;;;4.35;2.83;;;;;;;;;;4991606;28;20046;-69
2021/11/02 17:03:47;;;;;;;6.65;4.28;;;;;;;;;;4997566;28;20034;-70
2021/11/02 17:06:20;;;;;;;2.08;1.40;;;;;;;;;;4990602;28;20128;-69
2021/11/02 17:09:04;;;;;;;1.90;0.75;;;;;;;;;;4991014;28;20519;-71
2021/11/02 17:11:32;;;;;;;0.80;0.80;;;;;;;;;;4991765;28;20145;-67
2021/11/02 17:14:01;;;;;;;0.98;0.90;;;;;;;;;;4974256;28;20054;-66
2021/11/02 17:16:30;;;;;;;0.85;0.75;;;;;;;;;;4967241;28;20057;-68
2021/11/02 17:19:06;;;;;;;0.85;0.60;;;;;;;;;;4987473;28;20759;-69
2021/11/02 17:21:35;;;;;;;3.53;1.20;;;;;;;;;;4989702;28;20054;-68
2021/11/02 17:24:05;;;;;;;1.52;1.30;;;;;;;;;;4991189;28;20054;-68
2021/11/02 17:26:33;;;;;;;1.58;1.10;;;;;;;;;;4989263;28;20050;-71
2021/11/02 17:29:01;;;;;;;1.40;1.10;;;;;;;;;;4991309;28;20054;-70
2021/11/02 17:31:37;;;;;;;2.42;1.10;;;;;;;;;;4990067;28;20456;-70
2021/11/02 17:34:12;;;;;;;1.88;1.30;;;;;;;;;;4989338;28;20050;-70
2021/11/02 17:36:39;;;;;;;2.30;1.70;;;;;;;;;;4991225;28;20078;-70
2021/11/02 17:39:06;;;;;;;2.60;2.00;;;;;;;;;;4991621;28;20061;-70
2021/11/02 17:41:34;;;;;;;6.32;3.95;;;;;;;;;;4980705;28;20420;-69
2021/11/02 17:44:01;;;;;;;5.07;3.45;;;;;;;;;;4991229;28;20054;-67
2021/11/02 17:46:28;;;;;;;8.35;4.28;;;;;;;;;;4991396;28;20089;-69
2021/11/02 17:48:56;;;;;;;5.22;2.65;;;;;;;;;;4987910;28;20085;-68
2021/11/02 17:51:23;;;;;;;3.50;2.33;;;;;;;;;;4990940;28;20508;-69
2021/11/02 17:53:51;;;;;;;8.70;2.80;;;;;;;;;;4987686;28;20050;-70
2021/11/02 17:56:20;;;;;;;5.72;2.42;;;;;;;;;;4991383;28;20116;-70
2021/11/02 17:58:46;;;;;;;5.43;3.10;;;;;;;;;;4990715;28;20046;-68
2021/11/02 18:01:13;;;;;;;4.20;2.75;;;;;;;;;;4987774;28;20081;-70
2021/11/02 18:03:43;;;;;;;4.28;2.53;;;;;;;;;;4990500;28;20108;-67
2021/11/02 18:06:11;;;;;;;3.60;2.35;;;;;;;;;;4990876;28;20062;-72
2021/11/02 18:08:45;;;;;;;3.75;2.75;;;;;;;;;;4990689;28;20054;-68
2021/11/02 18:11:13;;;;;;;4.75;2.33;;;;;;;;;;4977182;28;20114;-69
2021/11/02 18:13:40;;;;;;;3.05;2.30;;;;;;;;;;4989016;28;20417;-69
2021/11/02 18:16:08;;;;;;;2.63;1.80;;;;;;;;;;4990781;28;20489;-68
2021/11/02 18:18:37;;;;;;;4.00;2.08;;;;;;;;;;4989920;28;20050;-70
2021/11/02 18:21:07;;;;;;;3.25;1.80;;;;;;;;;;4989643;28;20054;-70
2021/11/02 18:23:34;;;;;;;2.50;2.17;;;;;;;;;;4987189;28;20046;-70
2021/11/02 18:26:02;;;;;;;5.65;3.75;;;;;;;;;;4989450;28;20476;-72
2021/11/02 18:28:30;;;;;;;4.25;3.35;;;;;;;;;;4990298;28;20085;-71
2021/11/02 18:30:58;;;;;;;4.97;3.05;;;;;;;;;;4990052;28;20094;-67
2021/11/02 18:33:25;;;;;;;3.47;2.70;;;;;;;;;;4977785;28;20046;-67
2021/11/02 18:35:53;;;;;;;3.05;2.20;;;;;;;;;;4990561;28;20054;-67
2021/11/02 18:38:19;;;;;;;5.40;1.70;;;;;;;;;;4978446;28;20058;-75
2021/11/02 18:40:46;;;;;;;2.35;1.60;;;;;;;;;;4961545;28;20046;-69
2021/11/02 18:43:13;;;;;;;2.10;1.75;;;;;;;;;;4985736;28;20512;-69
2021/11/02 18:45:40;;;;;;;3.10;1.70;;;;;;;;;;4990171;28;20054;-69
2021/11/02 18:48:07;;;;;;;3.65;2.33;;;;;;;;;;4989880;28;20453;-69
2021/11/02 18:50:34;;;;;;;2.08;1.67;;;;;;;;;;4990426;28;20743;-69
2021/11/02 18:53:01;;;;;;;3.30;2.13;;;;;;;;;;4989638;28;20055;-69
2021/11/02 18:55:27;;;;;;;4.93;2.38;;;;;;;;;;4979799;28;20050;-70
2021/11/02 18:57:55;;;;;;;4.65;2.08;;;;;;;;;;4989611;28;20073;-70
2021/11/02 19:00:22;;;;;;;3.85;2.40;;;;;;;;;;4990359;28;20398;-69
2021/11/02 19:03:08;;;;;;;5.28;2.50;;;;;;;;;;4989654;28;20050;-69
2021/11/02 19:05:39;;;;;;;5.13;2.28;;;;;;;;;;4989792;28;20092;-70
2021/11/02 19:08:09;;;;;;;2.85;2.00;;;;;;;;;;4989658;28;20047;-69
2021/11/02 19:10:36;;;;;;;3.40;2.60;;;;;;;;;;4989552;28;20050;-69
2021/11/02 19:13:03;;;;;;;3.45;2.30;;;;;;;;;;4961503;28;20656;-69
2021/11/02 19:15:29;;;;;;;3.40;2.60;;;;;;;;;;4990022;28;20516;-69
2021/11/02 19:17:56;;;;;;;3.75;2.78;;;;;;;;;;4983281;28;20057;-69
2021/11/02 19:20:22;;;;;;;3.45;2.53;;;;;;;;;;4989436;28;20073;-69
2021/11/02 19:22:50;;;;;;;7.97;3.33;;;;;;;;;;4988690;28;20536;-69
2021/11/02 19:25:16;;;;;;;3.25;2.45;;;;;;;;;;4989680;28;20493;-69
2021/11/02 19:27:43;;;;;;;5.30;2.47;;;;;;;;;;4989243;28;20054;-69
2021/11/02 19:30:11;;;;;;;2.92;2.17;;;;;;;;;;4988933;28;20058;-69
2021/11/02 19:32:38;;;;;;;3.30;2.42;;;;;;;;;;4988976;28;20141;-70
2021/11/02 19:35:06;;;;;;;4.47;2.25;;;;;;;;;;4988724;28;20101;-69
2021/11/02 19:37:33;;;;;;;6.00;2.47;;;;;;;;;;4989334;28;20046;-69
2021/11/02 19:40:00;;;;;;;3.75;2.15;;;;;;;;;;4987319;28;20505;-69
2021/11/02 19:42:26;;;;;;;3.03;2.25;;;;;;;;;;4988329;28;20104;-69
2021/11/02 19:44:54;;;;;;;2.75;1.88;;;;;;;;;;4989495;28;20050;-69
2021/11/02 19:47:21;;;;;;;3.83;2.20;;;;;;;;;;4988817;28;20057;-69
2021/11/02 19:49:48;;;;;;;3.10;2.15;;;;;;;;;;4985966;28;20050;-69
2021/11/02 19:52:14;;;;;;;4.13;2.30;;;;;;;;;;4981233;28;20515;-69
2021/11/02 19:54:41;;;;;;;2.65;1.83;;;;;;;;;;4989359;28;20112;-69
2021/11/02 19:57:08;;;;;;;2.95;2.17;;;;;;;;;;4987082;28;20054;-69
2021/11/02 19:59:34;;;;;;;3.20;1.92;;;;;;;;;;4989116;28;20050;-69
2021/11/02 20:02:01;;;;;;;3.47;2.50;;;;;;;;;;4988597;28;20069;-69
2021/11/02 20:04:28;;;;;;;4.03;2.42;;;;;;;;;;4978331;28;20163;-69
2021/11/02 20:07:01;;;;;;;3.80;2.20;;;;;;;;;;4989314;28;20077;-70
2021/11/02 20:09:32;;;;;;;;;;;;;;;;;;4990941;28;20046;-70
2021/11/02 20:12:10;;;;;;;3.70;2.28;;;;;;;;;;4988814;28;20331;-70
2021/11/02 20:14:40;;;;;;;3.72;2.17;;;;;;;;;;5003149;28;20043;-69
2021/11/02 20:17:08;;;;;;;3.80;2.78;;;;;;;;;;4988103;28;20054;-69